Aviation Digital Data Service (ADDS)

Output produced by METARs form (0829 UTC 07 February 2016)
found at http://aviationweather.gov/adds/metars/
 
KMBS 070520Z 0706/0806 22007KT P6SM BKN120 
     FM071700 20012G20KT P6SM OVC080 
     FM072200 22010KT P6SM SCT035 OVC050 
     FM080200 24007KT P6SM SCT025 OVC035